Time;durP1;ratioP1;P1;durP2;ratioP2;P2;SDS_P1;SDS_P2;PMS_P1;PMS_P2;Temp;Humidity;BMP_temperature;BMP_pressure;BME280_temperature;BME280_humidity;BME280_pressure;Samples;Min_cycle;Max_cycle;Signal;HPM_P1;HPM_P2
2023/10/09 00:00:36;;;;;;;22.52;11.85;;;14.40;99.90;;;;;;4956074;29;20118;-80
2023/10/09 00:03:03;;;;;;;24.17;11.85;;;14.50;99.90;;;;;;4956063;29;20043;-81
2023/10/09 00:06:05;;;;;;;25.85;11.23;;;14.40;99.90;;;;;;4955343;29;20034;-80
2023/10/09 00:08:30;;;;;;;24.73;11.43;;;14.50;99.90;;;;;;4952669;29;20035;-79
2023/10/09 00:11:16;;;;;;;19.98;10.27;;;14.40;99.90;;;;;;4955746;29;20031;-80
2023/10/09 00:13:49;;;;;;;22.52;10.95;;;14.50;99.90;;;;;;4955041;29;20039;-80
2023/10/09 00:19:16;;;;;;;30.05;12.82;;;14.40;99.90;;;;;;4955404;29;20042;-80
2023/10/09 00:21:46;;;;;;;23.13;12.32;;;14.40;99.90;;;;;;4955121;29;20039;-80
2023/10/09 00:24:24;;;;;;;22.85;12.48;;;14.40;99.90;;;;;;4956046;29;20099;-80
2023/10/09 00:26:51;;;;;;;24.60;12.38;;;14.40;99.90;;;;;;4955294;29;20114;-80
2023/10/09 00:29:23;;;;;;;29.15;13.15;;;14.40;99.90;;;;;;4937451;29;20435;-80
2023/10/09 00:32:03;;;;;;;23.50;13.25;;;14.40;99.90;;;;;;4955353;29;20036;-80
2023/10/09 00:34:30;;;;;;;26.45;13.07;;;14.40;99.90;;;;;;4953455;28;20571;-80
2023/10/09 00:37:04;;;;;;;25.70;12.50;;;14.40;99.90;;;;;;4955227;29;20122;-80
2023/10/09 00:42:06;;;;;;;27.48;14.57;;;14.40;99.90;;;;;;4955208;29;20031;-80
2023/10/09 00:44:39;;;;;;;22.27;12.77;;;14.40;99.90;;;;;;4954614;29;20114;-80
2023/10/09 00:47:22;;;;;;;24.13;13.18;;;14.40;99.90;;;;;;4954872;29;20040;-80
2023/10/09 00:50:03;;;;;;;22.77;12.60;;;14.40;99.90;;;;;;4957009;28;20110;-79
2023/10/09 00:52:33;;;;;;;30.20;12.88;;;14.40;99.90;;;;;;4957694;29;20506;-80
2023/10/09 00:55:08;;;;;;;27.25;13.73;;;14.40;99.90;;;;;;4941163;29;20563;-80
2023/10/09 00:57:37;;;;;;;26.33;15.02;;;14.30;99.90;;;;;;4958331;29;20059;-80
2023/10/09 01:00:10;;;;;;;30.80;14.27;;;14.30;99.90;;;;;;4941007;29;20504;-81
2023/10/09 01:02:37;;;;;;;28.05;15.73;;;14.30;99.90;;;;;;4940933;29;20400;-80
2023/10/09 01:05:11;;;;;;;30.83;15.85;;;14.30;99.90;;;;;;4958749;29;20073;-80
2023/10/09 01:07:40;;;;;;;28.42;14.88;;;14.30;99.90;;;;;;4950650;29;20027;-80
2023/10/09 01:10:09;;;;;;;30.75;14.98;;;14.20;99.90;;;;;;4956967;29;20125;-81
2023/10/09 01:12:42;;;;;;;29.45;15.00;;;14.20;99.90;;;;;;4957919;29;20031;-81
2023/10/09 01:15:08;;;;;;;28.67;15.93;;;14.30;99.90;;;;;;4958510;29;20043;-80
2023/10/09 01:17:39;;;;;;;29.50;16.30;;;14.30;99.90;;;;;;4940883;29;20031;-80
2023/10/09 01:20:15;;;;;;;27.42;15.32;;;14.30;99.90;;;;;;4958362;29;20533;-81
2023/10/09 01:22:43;;;;;;;30.73;16.02;;;14.30;99.90;;;;;;4941589;29;20040;-80
2023/10/09 01:25:09;;;;;;;27.70;15.13;;;14.30;99.90;;;;;;4958422;29;20043;-80
2023/10/09 01:27:40;;;;;;;35.60;17.63;;;14.30;99.90;;;;;;4957838;29;20033;-80
2023/10/09 01:30:06;;;;;;;30.10;16.13;;;14.30;99.90;;;;;;4958321;29;20035;-80
2023/10/09 01:32:34;;;;;;;30.05;17.02;;;14.40;99.90;;;;;;4958206;29;20038;-81
2023/10/09 01:35:00;;;;;;;33.00;18.35;;;14.40;99.90;;;;;;4957282;29;20031;-80
2023/10/09 01:39:59;;;;;;;32.38;18.38;;;14.40;99.90;;;;;;4957114;29;20090;-81
2023/10/09 01:42:34;;;;;;;35.65;19.38;;;14.40;99.90;;;;;;4939827;29;20046;-81
2023/10/09 01:45:15;;;;;;;33.90;18.45;;;14.40;99.90;;;;;;4940289;29;20515;-80
2023/10/09 01:47:46;;;;;;;34.53;18.77;;;14.40;99.90;;;;;;4958271;29;20040;-80
2023/10/09 01:50:20;;;;;;;32.15;17.48;;;14.40;99.90;;;;;;4960434;29;20034;-80
2023/10/09 01:52:45;;;;;;;;;;;14.50;99.90;;;;;;4961712;29;20221;-80
2023/10/09 01:55:27;;;;;;;28.90;15.68;;;14.50;99.90;;;;;;4959831;29;20417;-81
2023/10/09 01:57:53;;;;;;;31.20;18.52;;;14.50;99.90;;;;;;4959421;29;20039;-81
2023/10/09 02:00:24;;;;;;;32.10;18.52;;;14.50;99.90;;;;;;4957981;28;20098;-81
2023/10/09 02:02:50;;;;;;;35.00;18.38;;;14.50;99.90;;;;;;4959081;29;20054;-80
2023/10/09 02:07:51;;;;;;;33.53;20.17;;;14.60;99.90;;;;;;4961136;29;20035;-80
2023/10/09 02:12:58;;;;;;;32.55;19.35;;;14.70;99.90;;;;;;4960044;29;20036;-80
2023/10/09 02:16:28;;;;;;;37.00;19.25;;;14.70;99.90;;;;;;4961037;29;20058;-80
2023/10/09 02:21:12;;;;;;;35.78;19.55;;;14.70;99.90;;;;;;4957433;29;20400;-80
2023/10/09 02:23:41;;;;;;;33.30;19.83;;;14.70;99.90;;;;;;4957859;29;20039;-80
2023/10/09 02:26:17;;;;;;;31.25;19.50;;;14.70;99.90;;;;;;4958490;29;20035;-80
2023/10/09 02:28:43;;;;;;;31.60;19.27;;;14.70;99.90;;;;;;4958897;29;20069;-79
2023/10/09 02:31:13;;;;;;;31.52;18.70;;;14.80;99.90;;;;;;4959187;29;20036;-80
2023/10/09 02:33:39;;;;;;;30.33;19.17;;;14.80;99.90;;;;;;4959772;29;20039;-80
2023/10/09 02:36:08;;;;;;;29.90;19.58;;;14.80;99.90;;;;;;4960088;29;20047;-79
2023/10/09 02:38:36;;;;;;;29.83;20.17;;;14.80;99.90;;;;;;4941878;29;20054;-80
2023/10/09 02:44:15;;;;;;;35.70;20.95;;;14.90;99.90;;;;;;4958848;29;20116;-80
2023/10/09 02:46:28;;;;;;;30.90;18.40;;;14.90;99.90;;;;;;4948970;29;20039;-80
2023/10/09 02:48:58;;;;;;;29.23;18.55;;;14.90;99.90;;;;;;4957442;29;20062;-80
2023/10/09 02:53:57;;;;;;;33.75;21.17;;;14.90;99.90;;;;;;4958526;29;20114;-80
2023/10/09 02:56:24;;;;;;;32.95;20.27;;;14.90;99.90;;;;;;4957795;29;20039;-81
2023/10/09 02:58:53;;;;;;;33.03;19.45;;;14.90;99.90;;;;;;4956770;29;20027;-81
2023/10/09 03:01:19;;;;;;;32.80;20.55;;;15.00;99.90;;;;;;4956089;29;20039;-81
2023/10/09 03:03:45;;;;;;;32.58;18.77;;;15.00;99.90;;;;;;4938449;29;20086;-81
2023/10/09 03:06:12;;;;;;;35.33;21.27;;;15.00;99.90;;;;;;4939230;29;20053;-81
2023/10/09 03:08:40;;;;;;;35.05;21.60;;;15.00;99.90;;;;;;4957306;29;20062;-80
2023/10/09 03:11:13;;;;;;;31.90;20.48;;;15.00;99.90;;;;;;4958220;28;20031;-80
2023/10/09 03:13:43;;;;;;;32.17;19.70;;;15.00;99.90;;;;;;4958320;29;20027;-80
2023/10/09 03:16:21;;;;;;;33.88;20.17;;;15.10;99.90;;;;;;4958508;29;20059;-80
2023/10/09 03:18:52;;;;;;;26.92;18.45;;;15.10;99.90;;;;;;4941083;29;20027;-80
2023/10/09 03:21:19;;;;;;;29.20;18.65;;;15.10;99.90;;;;;;4956581;29;20102;-80
2023/10/09 03:23:51;;;;;;;32.45;19.25;;;15.10;99.90;;;;;;4956089;29;20035;-81
2023/10/09 03:26:20;;;;;;;35.78;19.13;;;15.10;99.90;;;;;;4956208;29;20035;-81
2023/10/09 03:28:47;;;;;;;32.25;20.25;;;15.10;99.90;;;;;;4957219;29;20048;-80
2023/10/09 03:31:13;;;;;;;32.42;20.08;;;15.20;99.90;;;;;;4955178;29;20114;-81
2023/10/09 03:33:39;;;;;;;28.33;19.65;;;15.20;99.90;;;;;;4955429;29;20582;-82
2023/10/09 03:36:16;;;;;;;32.67;20.48;;;15.20;99.90;;;;;;4954607;29;20039;-81
2023/10/09 03:38:42;;;;;;;29.40;20.90;;;15.20;99.90;;;;;;4956969;29;20060;-80
2023/10/09 03:41:12;;;;;;;31.73;19.52;;;15.20;99.90;;;;;;4956446;29;20039;-81
2023/10/09 03:43:39;;;;;;;30.35;20.38;;;15.20;99.90;;;;;;4958553;29;20093;-81
2023/10/09 03:46:20;;;;;;;34.10;20.75;;;15.30;99.90;;;;;;4960084;29;20055;-80
2023/10/09 03:48:52;;;;;;;34.38;20.42;;;15.20;99.90;;;;;;4958052;29;20043;-81
2023/10/09 03:51:21;;;;;;;29.88;19.52;;;15.30;99.90;;;;;;4954658;29;20031;-80
2023/10/09 03:53:51;;;;;;;30.25;19.20;;;15.30;99.90;;;;;;4957311;29;20035;-81
2023/10/09 03:56:18;;;;;;;33.20;20.73;;;15.30;99.90;;;;;;4955220;29;20039;-80
2023/10/09 03:58:45;;;;;;;28.55;19.95;;;15.30;99.90;;;;;;4955228;29;20031;-81
2023/10/09 04:03:47;;;;;;;28.73;18.75;;;15.40;99.90;;;;;;4956173;29;20035;-80
2023/10/09 04:06:13;;;;;;;30.08;17.77;;;15.40;99.90;;;;;;4955850;29;20036;-80
2023/10/09 04:08:46;;;;;;;26.52;18.30;;;15.40;99.90;;;;;;4956189;29;20035;-81
2023/10/09 04:11:16;;;;;;;25.52;17.23;;;15.40;99.90;;;;;;4955473;29;20034;-82
2023/10/09 04:13:49;;;;;;;29.45;19.90;;;15.40;99.90;;;;;;4954784;29;20086;-83
2023/10/09 04:19:11;;;;;;;28.40;18.33;;;15.40;99.90;;;;;;4932119;29;20083;-81
2023/10/09 04:21:37;;;;;;;26.70;17.95;;;15.40;99.90;;;;;;4937423;29;20038;-82
2023/10/09 04:26:34;;;;;;;28.25;17.90;;;15.50;99.90;;;;;;4959387;29;20105;-80
2023/10/09 04:29:02;;;;;;;26.73;17.80;;;15.50;99.90;;;;;;4958970;29;20023;-80
2023/10/09 04:31:31;;;;;;;26.05;17.30;;;15.50;99.90;;;;;;4958390;28;20055;-82
2023/10/09 04:36:49;;;;;;;30.30;19.00;;;15.50;99.90;;;;;;4983702;28;20096;-81
2023/10/09 04:47:37;;;;;;;24.05;15.55;;;15.60;99.90;;;;;;4977748;28;20517;-82
2023/10/09 04:50:36;;;;;;;23.80;16.35;;;15.60;99.90;;;;;;4959239;28;20097;-83
2023/10/09 04:55:44;;;;;;;29.20;16.67;;;15.60;99.90;;;;;;4977262;28;20038;-81
2023/10/09 04:58:23;;;;;;;24.30;15.35;;;15.60;99.90;;;;;;4959896;28;20062;-81
2023/10/09 05:01:04;;;;;;;24.67;16.30;;;15.60;99.90;;;;;;4977932;28;20043;-81
2023/10/09 05:09:12;;;;;;;24.58;15.55;;;15.60;99.90;;;;;;4934038;28;20031;-82
2023/10/09 05:14:26;;;;;;;23.83;15.60;;;15.70;99.90;;;;;;4961553;28;20394;-82
2023/10/09 05:17:04;;;;;;;22.65;15.68;;;15.70;99.90;;;;;;4992281;28;20042;-80
2023/10/09 05:19:41;;;;;;;28.33;16.90;;;15.70;99.90;;;;;;4978776;28;20042;-80
2023/10/09 05:22:16;;;;;;;22.33;15.18;;;15.70;99.90;;;;;;4979224;28;20031;-80
2023/10/09 05:24:47;;;;;;;24.33;14.98;;;15.70;99.90;;;;;;4996123;28;20046;-80
2023/10/09 05:27:24;;;;;;;22.55;15.15;;;15.70;99.90;;;;;;4994267;28;20034;-80
2023/10/09 05:30:24;;;;;;;25.60;15.45;;;15.80;99.90;;;;;;4979528;28;20035;-79
2023/10/09 05:32:48;;;;;;;26.65;15.52;;;15.80;99.90;;;;;;4992880;28;20038;-80
2023/10/09 05:35:20;;;;;;;24.42;15.15;;;15.80;99.90;;;;;;4967082;28;20192;-80
2023/10/09 05:37:45;;;;;;;25.95;14.20;;;15.80;99.90;;;;;;4966794;28;20035;-82
2023/10/09 05:42:44;;;;;;;23.30;15.27;;;15.80;99.90;;;;;;4967489;28;20035;-81
2023/10/09 05:46:07;;;;;;;20.15;13.93;;;15.80;99.90;;;;;;4968210;28;20035;-80
2023/10/09 06:04:49;;;;;;;24.75;14.85;;;15.90;99.90;;;;;;4958129;28;19918;-80
2023/10/09 06:07:14;;;;;;;23.17;14.20;;;15.90;99.90;;;;;;4956423;29;20498;-82
2023/10/09 06:10:10;;;;;;;22.25;14.70;;;15.90;99.90;;;;;;4968924;28;20034;-82
2023/10/09 06:15:30;;;;;;;27.52;14.30;;;15.90;99.90;;;;;;4975477;28;20126;-81
2023/10/09 06:18:25;;;;;;;27.52;15.40;;;15.90;99.90;;;;;;4958500;28;20090;-82
2023/10/09 06:23:57;;;;;;;30.23;15.90;;;15.90;99.90;;;;;;4975614;28;20119;-82
2023/10/09 06:26:23;;;;;;;22.58;15.05;;;16.00;99.90;;;;;;4975551;28;20501;-81
2023/10/09 06:29:13;;;;;;;20.48;14.65;;;16.00;99.90;;;;;;4958711;28;20038;-80
2023/10/09 06:31:57;;;;;;;24.10;14.15;;;16.00;99.90;;;;;;4975535;28;20037;-80
2023/10/09 06:34:32;;;;;;;19.90;13.07;;;16.00;99.90;;;;;;4975614;28;20038;-80
2023/10/09 06:37:03;;;;;;;22.00;12.90;;;16.00;99.90;;;;;;4975426;28;20483;-81
2023/10/09 06:45:04;;;;;;;17.27;11.10;;;16.10;99.90;;;;;;4976966;28;19971;-81
2023/10/09 06:47:36;;;;;;;22.45;12.77;;;16.20;99.90;;;;;;4957262;28;20395;-81
2023/10/09 06:55:50;;;;;;;23.23;13.73;;;16.20;99.90;;;;;;4975283;28;20054;-80
2023/10/09 06:58:23;;;;;;;19.23;12.85;;;16.20;99.90;;;;;;4974944;28;20086;-80
2023/10/09 07:01:19;;;;;;;26.20;14.15;;;16.20;99.90;;;;;;4974862;28;20031;-80
2023/10/09 07:03:51;;;;;;;22.80;13.82;;;16.20;99.90;;;;;;4973787;28;20042;-80
2023/10/09 07:06:25;;;;;;;19.63;13.35;;;16.30;99.90;;;;;;4974803;28;20041;-81
2023/10/09 07:17:15;;;;;;;21.50;13.68;;;16.40;99.90;;;;;;4975048;28;20047;-80
2023/10/09 07:24:49;;;;;;;23.92;14.32;;;16.50;99.90;;;;;;4974781;28;20391;-80
2023/10/09 07:32:54;;;;;;;21.52;14.18;;;16.60;99.90;;;;;;4965081;28;20497;-80
2023/10/09 07:35:46;;;;;;;22.02;13.95;;;16.60;99.90;;;;;;4946820;28;20039;-81
2023/10/09 07:38:09;;;;;;;22.27;13.85;;;16.60;99.90;;;;;;4965218;28;20034;-82
2023/10/09 07:43:35;;;;;;;22.25;14.90;;;16.70;99.90;;;;;;4962991;28;20033;-79
2023/10/09 07:48:52;;;;;;;22.55;12.65;;;16.80;99.90;;;;;;4970207;28;20053;-81
2023/10/09 07:51:22;;;;;;;23.95;14.68;;;16.80;99.90;;;;;;4965315;28;20038;-80
2023/10/09 07:54:07;;;;;;;27.13;16.60;;;16.80;99.90;;;;;;4966106;28;20023;-82
2023/10/09 07:56:43;;;;;;;23.50;15.77;;;16.80;99.90;;;;;;4961140;28;20038;-84
2023/10/09 07:59:11;;;;;;;21.30;14.68;;;16.90;99.90;;;;;;4949153;28;20035;-84
2023/10/09 08:02:02;;;;;;;21.15;14.48;;;16.90;99.90;;;;;;4958308;29;20039;-84
2023/10/09 08:04:38;;;;;;;19.92;13.80;;;16.90;99.90;;;;;;4958382;29;20027;-85
2023/10/09 08:07:07;;;;;;;24.90;14.52;;;17.00;99.90;;;;;;4958429;29;20066;-84
2023/10/09 08:15:20;;;;;;;21.02;12.85;;;17.20;99.90;;;;;;4957879;29;20043;-83
2023/10/09 08:17:58;;;;;;;23.60;12.48;;;17.30;99.90;;;;;;4965612;28;20041;-84
2023/10/09 08:20:25;;;;;;;17.65;11.43;;;17.40;99.90;;;;;;4967799;28;20034;-84
2023/10/09 08:22:58;;;;;;;20.77;13.93;;;17.50;99.90;;;;;;4963389;28;20050;-82
2023/10/09 08:25:27;;;;;;;20.27;12.85;;;17.50;99.90;;;;;;4958034;29;20110;-81
2023/10/09 08:27:58;;;;;;;20.95;13.40;;;17.60;99.90;;;;;;4962835;28;20031;-81
2023/10/09 08:33:01;;;;;;;21.45;14.07;;;17.70;99.90;;;;;;4976971;28;20446;-83
2023/10/09 08:35:32;;;;;;;21.95;13.15;;;17.70;99.90;;;;;;4977532;28;20039;-81
2023/10/09 08:38:00;;;;;;;21.02;13.93;;;17.70;99.90;;;;;;4977287;28;20069;-82
2023/10/09 08:40:33;;;;;;;22.25;13.75;;;17.70;99.90;;;;;;4977285;28;20026;-83
2023/10/09 08:43:08;;;;;;;20.83;12.90;;;17.70;99.90;;;;;;4959913;28;20081;-84
2023/10/09 08:45:39;;;;;;;21.02;13.20;;;17.80;99.90;;;;;;4959803;28;20039;-82
2023/10/09 08:48:06;;;;;;;21.88;12.77;;;17.90;99.90;;;;;;4960034;28;20038;-82
2023/10/09 08:50:34;;;;;;;23.13;13.10;;;17.90;99.90;;;;;;4976716;28;20039;-84
2023/10/09 08:53:03;;;;;;;21.67;13.48;;;18.00;99.90;;;;;;4976768;28;20023;-84
2023/10/09 08:55:29;;;;;;;21.08;14.05;;;18.10;99.90;;;;;;4959290;28;20126;-83
2023/10/09 08:57:57;;;;;;;19.05;11.90;;;18.10;99.90;;;;;;4976994;28;20106;-81
2023/10/09 09:00:33;;;;;;;22.50;13.13;;;18.20;99.90;;;;;;4976989;28;20367;-82
2023/10/09 09:03:00;;;;;;;19.65;14.60;;;18.20;99.90;;;;;;4959433;28;20038;-82
2023/10/09 09:05:28;;;;;;;19.63;13.15;;;18.20;99.90;;;;;;4973918;28;20046;-80
2023/10/09 09:07:59;;;;;;;19.92;12.88;;;18.30;99.90;;;;;;4976747;28;20557;-82
2023/10/09 09:10:46;;;;;;;21.45;13.07;;;18.30;99.90;;;;;;4958304;28;20031;-81
2023/10/09 09:13:18;;;;;;;23.17;14.80;;;18.40;99.90;;;;;;4976362;28;20042;-81
2023/10/09 09:15:47;;;;;;;24.38;13.70;;;18.40;99.90;;;;;;4973423;28;20050;-81
2023/10/09 09:18:17;;;;;;;22.90;14.55;;;18.50;99.90;;;;;;4976693;28;20113;-81
2023/10/09 09:20:46;;;;;;;18.33;12.00;;;18.60;99.90;;;;;;4976291;28;20058;-82
2023/10/09 09:23:12;;;;;;;23.10;13.15;;;18.60;99.90;;;;;;4976464;28;20510;-81
2023/10/09 09:25:48;;;;;;;23.08;13.40;;;18.60;99.90;;;;;;4976310;28;20067;-82
2023/10/09 09:28:21;;;;;;;23.38;12.75;;;18.60;99.90;;;;;;4976729;28;20035;-82
2023/10/09 09:30:54;;;;;;;23.05;14.23;;;18.70;99.90;;;;;;4976356;28;20035;-82
2023/10/09 09:33:39;;;;;;;21.73;12.55;;;18.70;99.90;;;;;;4976718;28;20475;-81
2023/10/09 09:36:06;;;;;;;18.65;12.15;;;18.70;99.90;;;;;;4976417;28;20114;-81
2023/10/09 09:38:50;;;;;;;18.80;12.52;;;18.80;99.90;;;;;;4975642;28;20506;-81
2023/10/09 09:41:25;;;;;;;24.27;12.93;;;18.80;99.90;;;;;;4959021;28;20042;-83
2023/10/09 09:44:00;;;;;;;22.40;12.85;;;18.80;99.90;;;;;;4959071;28;20114;-83
2023/10/09 09:46:34;;;;;;;19.73;12.32;;;18.90;99.90;;;;;;4976412;28;20064;-84
2023/10/09 09:49:01;;;;;;;18.10;11.57;;;19.00;99.90;;;;;;4952490;28;20043;-83
2023/10/09 09:51:30;;;;;;;15.73;10.18;;;19.00;99.90;;;;;;4976136;28;20085;-83
2023/10/09 09:53:56;;;;;;;18.65;10.82;;;19.10;99.90;;;;;;4975613;28;20387;-83
2023/10/09 09:56:25;;;;;;;17.50;10.43;;;19.20;99.90;;;;;;4977254;28;20053;-82
2023/10/09 09:58:55;;;;;;;18.67;11.32;;;19.40;99.90;;;;;;4976018;28;20110;-83
2023/10/09 10:01:26;;;;;;;17.25;10.80;;;19.40;99.90;;;;;;4955015;28;20044;-83
2023/10/09 10:04:04;;;;;;;18.90;10.60;;;19.50;99.90;;;;;;4966202;28;20041;-84
2023/10/09 10:06:32;;;;;;;18.10;9.00;;;19.50;99.90;;;;;;4966770;28;20078;-81
2023/10/09 10:08:59;;;;;;;14.75;9.20;;;19.60;99.90;;;;;;4948767;28;20026;-82
2023/10/09 10:11:44;;;;;;;16.13;8.88;;;19.60;99.90;;;;;;4964692;28;20031;-81
2023/10/09 10:14:28;;;;;;;17.13;8.40;;;19.70;99.90;;;;;;4966622;28;20029;-83
2023/10/09 10:17:21;;;;;;;16.42;8.32;;;19.80;99.80;;;;;;4966135;28;20126;-83
2023/10/09 10:22:50;;;;;;;17.67;10.18;;;20.00;99.40;;;;;;4965189;28;20418;-81
2023/10/09 10:25:32;;;;;;;16.20;8.80;;;20.00;99.00;;;;;;4966335;28;20157;-80
2023/10/09 10:28:44;;;;;;;18.95;9.27;;;20.00;98.70;;;;;;4966569;28;20493;-82
2023/10/09 10:31:11;;;;;;;16.75;8.90;;;20.10;98.50;;;;;;4859585;29;20446;-80
2023/10/09 10:33:54;;;;;;;14.63;8.48;;;20.10;98.30;;;;;;4878303;29;20531;-81
2023/10/09 10:36:24;;;;;;;19.50;8.32;;;20.20;98.10;;;;;;4928251;29;20560;-82
2023/10/09 10:39:04;;;;;;;16.27;9.00;;;20.20;98.00;;;;;;4958273;28;20039;-83
2023/10/09 10:41:35;;;;;;;18.88;7.72;;;20.30;97.80;;;;;;4956052;29;20043;-81
2023/10/09 10:44:33;;;;;;;15.23;8.20;;;20.30;97.70;;;;;;4956097;29;20037;-82
2023/10/09 10:46:53;;;;;;;15.75;8.43;;;20.40;97.40;;;;;;4955722;29;20035;-81
2023/10/09 10:49:23;;;;;;;15.07;7.85;;;20.40;97.10;;;;;;4938496;29;20083;-83
2023/10/09 10:52:01;;;;;;;14.65;6.68;;;20.40;97.00;;;;;;4959020;28;20530;-83
2023/10/09 10:57:00;;;;;;;12.30;6.72;;;20.40;97.00;;;;;;4964088;28;20027;-81
2023/10/09 10:59:36;;;;;;;17.50;7.85;;;20.60;96.80;;;;;;4964935;28;20031;-83
2023/10/09 11:07:12;;;;;;;11.65;6.38;;;20.70;96.20;;;;;;4964552;28;20035;-83
2023/10/09 11:12:42;;;;;;;14.05;7.30;;;21.00;95.70;;;;;;4974891;28;20061;-82
2023/10/09 11:15:29;;;;;;;15.52;6.45;;;21.20;95.20;;;;;;4974930;28;20395;-82
2023/10/09 11:18:04;;;;;;;10.98;5.93;;;21.30;95.10;;;;;;4975117;28;20083;-84
2023/10/09 11:20:35;;;;;;;10.88;5.65;;;21.40;94.80;;;;;;4974214;28;20190;-83
2023/10/09 11:25:39;;;;;;;16.25;6.20;;;21.60;94.30;;;;;;4974767;28;20040;-81
2023/10/09 11:28:42;;;;;;;10.68;5.65;;;21.70;93.80;;;;;;4974423;28;20062;-82
2023/10/09 11:31:11;;;;;;;13.13;6.53;;;21.80;93.70;;;;;;4974909;28;20386;-81
2023/10/09 11:33:44;;;;;;;13.13;5.32;;;21.70;93.30;;;;;;4974166;28;20497;-81
2023/10/09 11:36:09;;;;;;;9.98;5.93;;;21.80;93.20;;;;;;4973965;28;20038;-82
2023/10/09 11:38:36;;;;;;;15.88;6.18;;;21.90;93.00;;;;;;4974353;28;20136;-82
2023/10/09 11:41:19;;;;;;;13.82;5.78;;;21.90;92.90;;;;;;4974401;28;20046;-82
2023/10/09 11:43:52;;;;;;;13.00;5.60;;;22.00;92.70;;;;;;4974314;28;20054;-81
2023/10/09 11:46:37;;;;;;;13.50;5.82;;;22.00;92.40;;;;;;4974133;28;20045;-82
2023/10/09 11:49:15;;;;;;;11.93;5.78;;;22.20;91.90;;;;;;4973757;28;20027;-82
2023/10/09 11:52:03;;;;;;;11.13;5.10;;;22.30;91.80;;;;;;4951759;29;20528;-81
2023/10/09 11:54:33;;;;;;;12.77;5.32;;;22.30;91.30;;;;;;4954763;29;20028;-83
2023/10/09 11:57:02;;;;;;;15.10;5.75;;;22.40;91.00;;;;;;4955093;29;20051;-82
2023/10/09 11:59:38;;;;;;;12.10;4.97;;;22.40;90.70;;;;;;4937976;29;20053;-81
2023/10/09 12:02:12;;;;;;;11.48;5.15;;;22.40;90.30;;;;;;4955081;29;20484;-81
2023/10/09 12:04:41;;;;;;;13.07;5.32;;;22.40;90.30;;;;;;4954657;29;20123;-82
2023/10/09 12:07:11;;;;;;;11.38;4.65;;;22.40;90.10;;;;;;4954735;29;20051;-80
2023/10/09 12:09:37;;;;;;;13.68;5.95;;;22.40;90.20;;;;;;4937384;29;20472;-81
2023/10/09 12:12:08;;;;;;;12.70;5.18;;;22.40;90.00;;;;;;4937367;29;20519;-84
2023/10/09 12:14:37;;;;;;;14.75;5.50;;;22.50;90.00;;;;;;4954863;29;20114;-81
2023/10/09 12:17:07;;;;;;;13.93;5.00;;;22.50;89.50;;;;;;4954972;29;20067;-83
2023/10/09 12:19:38;;;;;;;9.68;4.18;;;22.60;89.40;;;;;;4954287;29;20027;-83
2023/10/09 12:22:05;;;;;;;10.23;4.50;;;22.60;89.30;;;;;;4954585;29;20051;-82
2023/10/09 12:24:35;;;;;;;11.00;4.38;;;22.60;88.80;;;;;;4959326;28;20043;-83
2023/10/09 12:27:01;;;;;;;9.05;4.03;;;22.50;88.50;;;;;;4964946;28;20030;-80
2023/10/09 12:29:30;;;;;;;10.68;4.45;;;22.50;88.40;;;;;;4963751;28;20395;-81
2023/10/09 12:31:58;;;;;;;11.90;4.38;;;22.40;88.30;;;;;;4962323;28;20115;-81
2023/10/09 12:34:26;;;;;;;11.88;4.97;;;22.40;88.60;;;;;;4952039;28;20072;-81
2023/10/09 12:36:55;;;;;;;9.27;3.85;;;22.40;88.50;;;;;;4969013;28;20478;-80
2023/10/09 12:39:22;;;;;;;16.35;4.38;;;22.40;88.30;;;;;;4960058;28;20523;-83
2023/10/09 12:41:53;;;;;;;13.40;3.83;;;22.50;87.50;;;;;;4958583;28;20039;-83
2023/10/09 12:44:22;;;;;;;7.88;3.70;;;22.50;87.00;;;;;;4970946;28;20495;-83
2023/10/09 12:46:54;;;;;;;12.75;4.85;;;22.40;86.60;;;;;;4958175;28;20534;-83
2023/10/09 12:49:24;;;;;;;12.25;4.47;;;22.40;86.00;;;;;;4942080;28;20484;-83
2023/10/09 12:51:52;;;;;;;15.73;4.15;;;22.30;86.30;;;;;;4957586;29;20464;-82
2023/10/09 12:54:24;;;;;;;10.10;4.28;;;22.30;86.40;;;;;;4959010;28;20055;-81
2023/10/09 12:56:50;;;;;;;10.65;4.65;;;22.20;86.20;;;;;;4962782;28;20039;-80
2023/10/09 12:59:15;;;;;;;11.77;4.95;;;22.10;86.20;;;;;;4957434;29;20086;-84
2023/10/09 13:01:45;;;;;;;10.00;4.15;;;22.00;86.30;;;;;;4957519;29;20435;-84
2023/10/09 13:04:17;;;;;;;11.07;4.38;;;21.90;86.60;;;;;;4957728;29;20047;-83
2023/10/09 13:06:44;;;;;;;10.52;4.75;;;21.80;86.80;;;;;;4958214;29;20107;-83
2023/10/09 13:09:35;;;;;;;12.85;4.10;;;21.80;87.10;;;;;;4975363;28;20035;-84
2023/10/09 13:12:01;;;;;;;10.98;4.32;;;21.80;87.30;;;;;;4977145;28;20114;-84
2023/10/09 13:14:28;;;;;;;7.55;3.65;;;21.80;87.50;;;;;;4976864;28;20462;-84
2023/10/09 13:16:54;;;;;;;13.23;4.35;;;21.80;87.60;;;;;;4976259;28;20074;-84
2023/10/09 13:19:24;;;;;;;11.77;3.70;;;21.80;87.70;;;;;;4976882;28;20427;-84
2023/10/09 13:21:50;;;;;;;10.95;4.60;;;21.80;87.60;;;;;;4976390;28;20070;-83
2023/10/09 13:24:15;;;;;;;12.23;4.75;;;21.80;87.70;;;;;;4976718;28;20045;-81
2023/10/09 13:26:45;;;;;;;9.73;4.10;;;21.70;87.70;;;;;;4969460;28;20039;-82
2023/10/09 13:29:11;;;;;;;10.18;4.70;;;21.60;87.80;;;;;;4944844;28;20085;-82
2023/10/09 13:31:39;;;;;;;11.95;4.10;;;21.60;88.00;;;;;;4967116;28;20232;-83
2023/10/09 13:34:10;;;;;;;9.95;4.28;;;21.60;88.20;;;;;;4948585;28;20425;-82
2023/10/09 13:36:37;;;;;;;14.77;4.68;;;21.60;88.40;;;;;;4965102;28;20028;-83
2023/10/09 13:39:26;;;;;;;10.50;4.10;;;21.60;88.60;;;;;;4968183;28;20030;-82
2023/10/09 13:41:58;;;;;;;9.02;4.15;;;21.50;88.80;;;;;;4976954;28;20033;-85
2023/10/09 13:44:34;;;;;;;7.90;3.75;;;21.60;89.00;;;;;;4975923;28;20109;-84
2023/10/09 13:47:04;;;;;;;10.10;4.68;;;21.60;89.10;;;;;;4964311;28;20050;-84
2023/10/09 13:49:30;;;;;;;10.32;4.13;;;21.60;89.30;;;;;;4957015;29;20035;-83
2023/10/09 13:51:58;;;;;;;10.65;4.82;;;21.60;89.30;;;;;;4956869;28;20039;-83
2023/10/09 13:54:48;;;;;;;10.82;4.53;;;21.60;89.40;;;;;;4939057;28;20035;-84
2023/10/09 13:57:10;;;;;;;8.75;4.20;;;21.50;89.40;;;;;;4955864;28;20044;-82
2023/10/09 13:59:36;;;;;;;8.30;4.15;;;21.50;89.50;;;;;;4956154;28;20036;-84
2023/10/09 14:02:09;;;;;;;9.20;4.28;;;21.40;89.50;;;;;;4956652;29;20050;-83
2023/10/09 14:04:35;;;;;;;14.00;5.32;;;21.40;89.60;;;;;;4956045;28;20031;-82
2023/10/09 14:07:05;;;;;;;11.43;5.43;;;21.50;89.80;;;;;;4956441;29;20082;-83
2023/10/09 14:09:37;;;;;;;11.73;4.00;;;21.40;89.90;;;;;;4960452;28;20553;-83
2023/10/09 14:12:09;;;;;;;11.75;4.90;;;21.40;90.00;;;;;;4958516;28;20035;-83
2023/10/09 14:14:49;;;;;;;10.98;4.00;;;21.30;90.00;;;;;;4969364;28;20042;-83
2023/10/09 14:17:19;;;;;;;9.73;4.70;;;21.30;90.10;;;;;;4966673;28;20031;-82
2023/10/09 14:19:47;;;;;;;10.98;4.18;;;21.30;90.10;;;;;;4956172;28;20050;-83
2023/10/09 14:22:19;;;;;;;8.90;4.40;;;21.30;90.20;;;;;;4951887;28;20049;-84
2023/10/09 14:24:55;;;;;;;8.30;3.78;;;21.30;90.20;;;;;;4950150;28;20031;-83
2023/10/09 14:27:24;;;;;;;10.25;4.30;;;21.30;90.30;;;;;;4968045;28;20475;-82
2023/10/09 14:29:49;;;;;;;8.38;3.83;;;21.30;90.40;;;;;;4964149;28;20015;-81
2023/10/09 14:32:16;;;;;;;10.10;4.32;;;21.20;90.40;;;;;;4967822;28;20102;-83
2023/10/09 14:34:54;;;;;;;9.98;3.88;;;21.20;90.40;;;;;;4969320;28;20046;-83
2023/10/09 14:37:20;;;;;;;8.95;4.70;;;21.10;90.50;;;;;;4950257;28;20035;-82
2023/10/09 14:39:50;;;;;;;11.70;4.40;;;21.10;90.50;;;;;;4974530;28;20035;-83
2023/10/09 14:42:16;;;;;;;9.07;3.72;;;21.10;90.60;;;;;;4975475;28;20135;-82
2023/10/09 14:44:44;;;;;;;7.95;4.40;;;21.10;90.70;;;;;;4975010;28;20090;-83
2023/10/09 14:47:10;;;;;;;11.80;3.95;;;21.10;90.80;;;;;;4973766;28;20026;-83
2023/10/09 14:49:43;;;;;;;10.52;3.85;;;21.10;90.80;;;;;;4966176;28;20041;-83
2023/10/09 14:52:10;;;;;;;9.20;4.13;;;21.00;90.80;;;;;;4938502;29;20038;-81
2023/10/09 14:54:38;;;;;;;11.00;4.50;;;21.00;90.90;;;;;;4956058;29;20111;-83
2023/10/09 14:57:05;;;;;;;11.38;4.47;;;21.00;91.00;;;;;;4955336;29;20036;-83
2023/10/09 14:59:33;;;;;;;9.40;4.03;;;21.00;91.10;;;;;;4954169;29;20467;-83
2023/10/09 15:01:59;;;;;;;12.75;4.28;;;21.00;91.20;;;;;;4955013;29;20038;-83
2023/10/09 15:04:28;;;;;;;9.95;4.10;;;21.00;91.20;;;;;;4954278;29;20476;-84
2023/10/09 15:06:53;;;;;;;10.85;4.75;;;20.90;91.30;;;;;;4943938;28;20074;-83
2023/10/09 15:09:22;;;;;;;10.73;4.22;;;21.00;91.30;;;;;;4972272;28;20077;-83
2023/10/09 15:11:52;;;;;;;10.35;4.38;;;20.90;91.40;;;;;;4972470;28;20039;-83